sensor_id;sensor_type;location;lat;lon;timestamp;P1;durP1;ratioP1;P2;durP2;ratioP2
65855;SDS011;52631;42.208;24.656;2023-01-08T00:02:00;16.83;;;8.00;;
65855;SDS011;52631;42.208;24.656;2023-01-08T00:04:26;17.27;;;8.75;;
65855;SDS011;52631;42.208;24.656;2023-01-08T00:06:51;21.30;;;10.25;;
65855;SDS011;52631;42.208;24.656;2023-01-08T00:09:17;20.98;;;10.35;;
65855;SDS011;52631;42.208;24.656;2023-01-08T00:11:42;16.70;;;8.25;;
65855;SDS011;52631;42.208;24.656;2023-01-08T00:14:08;21.67;;;11.52;;
65855;SDS011;52631;42.208;24.656;2023-01-08T00:16:34;32.58;;;17.83;;
65855;SDS011;52631;42.208;24.656;2023-01-08T00:19:00;39.78;;;20.30;;
65855;SDS011;52631;42.208;24.656;2023-01-08T00:21:25;39.90;;;22.48;;
65855;SDS011;52631;42.208;24.656;2023-01-08T00:23:52;41.72;;;20.95;;
65855;SDS011;52631;42.208;24.656;2023-01-08T00:26:17;40.63;;;23.75;;
65855;SDS011;52631;42.208;24.656;2023-01-08T00:28:42;52.08;;;27.30;;
65855;SDS011;52631;42.208;24.656;2023-01-08T00:31:09;33.20;;;17.75;;
65855;SDS011;52631;42.208;24.656;2023-01-08T00:33:35;18.25;;;10.50;;
65855;SDS011;52631;42.208;24.656;2023-01-08T00:36:09;18.05;;;9.90;;
65855;SDS011;52631;42.208;24.656;2023-01-08T00:38:38;14.23;;;9.55;;
65855;SDS011;52631;42.208;24.656;2023-01-08T00:41:04;18.55;;;9.30;;
65855;SDS011;52631;42.208;24.656;2023-01-08T00:43:30;15.93;;;7.60;;
65855;SDS011;52631;42.208;24.656;2023-01-08T00:45:55;15.90;;;8.00;;
65855;SDS011;52631;42.208;24.656;2023-01-08T00:48:21;17.73;;;8.68;;
65855;SDS011;52631;42.208;24.656;2023-01-08T00:53:22;13.43;;;7.38;;
65855;SDS011;52631;42.208;24.656;2023-01-08T00:55:47;14.32;;;8.35;;
65855;SDS011;52631;42.208;24.656;2023-01-08T00:58:13;13.60;;;8.15;;
65855;SDS011;52631;42.208;24.656;2023-01-08T01:00:39;12.45;;;6.32;;
65855;SDS011;52631;42.208;24.656;2023-01-08T01:03:04;13.57;;;7.03;;
65855;SDS011;52631;42.208;24.656;2023-01-08T01:05:30;14.02;;;6.90;;
65855;SDS011;52631;42.208;24.656;2023-01-08T01:07:55;10.75;;;6.65;;
65855;SDS011;52631;42.208;24.656;2023-01-08T01:10:21;12.90;;;6.53;;
65855;SDS011;52631;42.208;24.656;2023-01-08T01:12:47;13.10;;;6.80;;
65855;SDS011;52631;42.208;24.656;2023-01-08T01:15:13;12.52;;;6.93;;
65855;SDS011;52631;42.208;24.656;2023-01-08T01:17:40;12.32;;;6.53;;
65855;SDS011;52631;42.208;24.656;2023-01-08T01:20:08;12.75;;;6.43;;
65855;SDS011;52631;42.208;24.656;2023-01-08T01:22:35;10.43;;;5.47;;
65855;SDS011;52631;42.208;24.656;2023-01-08T01:25:02;14.32;;;5.47;;
65855;SDS011;52631;42.208;24.656;2023-01-08T01:27:28;14.00;;;6.00;;
65855;SDS011;52631;42.208;24.656;2023-01-08T01:29:53;14.35;;;6.78;;
65855;SDS011;52631;42.208;24.656;2023-01-08T01:32:19;12.40;;;6.55;;
65855;SDS011;52631;42.208;24.656;2023-01-08T01:34:44;13.48;;;7.22;;
65855;SDS011;52631;42.208;24.656;2023-01-08T01:37:13;13.90;;;7.35;;
65855;SDS011;52631;42.208;24.656;2023-01-08T01:39:39;14.90;;;6.50;;
65855;SDS011;52631;42.208;24.656;2023-01-08T01:42:05;12.13;;;6.38;;
65855;SDS011;52631;42.208;24.656;2023-01-08T01:44:51;12.68;;;6.85;;
65855;SDS011;52631;42.208;24.656;2023-01-08T01:47:21;14.52;;;6.50;;
65855;SDS011;52631;42.208;24.656;2023-01-08T01:52:21;14.02;;;7.07;;
65855;SDS011;52631;42.208;24.656;2023-01-08T01:54:47;12.45;;;6.50;;
65855;SDS011;52631;42.208;24.656;2023-01-08T01:57:14;13.82;;;7.53;;
65855;SDS011;52631;42.208;24.656;2023-01-08T01:59:39;14.90;;;7.50;;
65855;SDS011;52631;42.208;24.656;2023-01-08T02:02:06;14.85;;;7.38;;
65855;SDS011;52631;42.208;24.656;2023-01-08T02:04:31;14.73;;;6.97;;
65855;SDS011;52631;42.208;24.656;2023-01-08T02:06:59;12.30;;;6.35;;
65855;SDS011;52631;42.208;24.656;2023-01-08T02:09:51;11.95;;;5.88;;
65855;SDS011;52631;42.208;24.656;2023-01-08T02:12:30;9.18;;;5.43;;
65855;SDS011;52631;42.208;24.656;2023-01-08T02:17:34;12.10;;;5.45;;
65855;SDS011;52631;42.208;24.656;2023-01-08T02:20:12;8.43;;;5.15;;
65855;SDS011;52631;42.208;24.656;2023-01-08T02:23:15;9.40;;;5.07;;
65855;SDS011;52631;42.208;24.656;2023-01-08T02:31:19;13.63;;;6.47;;
65855;SDS011;52631;42.208;24.656;2023-01-08T02:33:45;8.68;;;4.80;;
65855;SDS011;52631;42.208;24.656;2023-01-08T02:36:16;13.68;;;6.78;;
65855;SDS011;52631;42.208;24.656;2023-01-08T02:38:52;6.82;;;4.20;;
65855;SDS011;52631;42.208;24.656;2023-01-08T02:42:26;13.95;;;4.85;;
65855;SDS011;52631;42.208;24.656;2023-01-08T02:47:02;10.00;;;5.57;;
65855;SDS011;52631;42.208;24.656;2023-01-08T02:49:30;13.57;;;6.00;;
65855;SDS011;52631;42.208;24.656;2023-01-08T02:51:57;11.60;;;5.78;;
65855;SDS011;52631;42.208;24.656;2023-01-08T02:54:25;12.73;;;6.10;;
65855;SDS011;52631;42.208;24.656;2023-01-08T02:56:56;15.07;;;6.85;;
65855;SDS011;52631;42.208;24.656;2023-01-08T02:59:23;14.93;;;6.70;;
65855;SDS011;52631;42.208;24.656;2023-01-08T03:01:49;14.25;;;6.47;;
65855;SDS011;52631;42.208;24.656;2023-01-08T03:04:16;10.50;;;6.22;;
65855;SDS011;52631;42.208;24.656;2023-01-08T03:06:43;11.27;;;5.95;;
65855;SDS011;52631;42.208;24.656;2023-01-08T03:09:09;12.35;;;6.15;;
65855;SDS011;52631;42.208;24.656;2023-01-08T03:11:37;14.52;;;7.65;;
65855;SDS011;52631;42.208;24.656;2023-01-08T03:17:02;13.02;;;7.30;;
65855;SDS011;52631;42.208;24.656;2023-01-08T03:19:53;13.48;;;8.73;;
65855;SDS011;52631;42.208;24.656;2023-01-08T03:22:20;16.05;;;9.35;;
65855;SDS011;52631;42.208;24.656;2023-01-08T03:24:47;19.55;;;10.13;;
65855;SDS011;52631;42.208;24.656;2023-01-08T03:27:16;15.10;;;7.50;;
65855;SDS011;52631;42.208;24.656;2023-01-08T03:29:44;10.77;;;7.85;;
65855;SDS011;52631;42.208;24.656;2023-01-08T03:32:12;13.68;;;7.53;;
65855;SDS011;52631;42.208;24.656;2023-01-08T03:34:39;14.82;;;7.93;;
65855;SDS011;52631;42.208;24.656;2023-01-08T03:37:07;12.20;;;7.88;;
65855;SDS011;52631;42.208;24.656;2023-01-08T03:42:05;13.43;;;7.88;;
65855;SDS011;52631;42.208;24.656;2023-01-08T03:44:33;15.45;;;8.25;;
65855;SDS011;52631;42.208;24.656;2023-01-08T03:46:58;17.17;;;8.30;;
65855;SDS011;52631;42.208;24.656;2023-01-08T03:49:25;15.70;;;9.10;;
65855;SDS011;52631;42.208;24.656;2023-01-08T03:51:52;13.88;;;7.90;;
65855;SDS011;52631;42.208;24.656;2023-01-08T03:54:19;13.27;;;7.38;;
65855;SDS011;52631;42.208;24.656;2023-01-08T03:56:46;11.50;;;7.10;;
65855;SDS011;52631;42.208;24.656;2023-01-08T03:59:12;14.20;;;7.00;;
65855;SDS011;52631;42.208;24.656;2023-01-08T04:01:38;15.63;;;8.48;;
65855;SDS011;52631;42.208;24.656;2023-01-08T04:04:04;14.40;;;8.07;;
65855;SDS011;52631;42.208;24.656;2023-01-08T04:06:29;16.27;;;8.10;;
65855;SDS011;52631;42.208;24.656;2023-01-08T04:08:55;15.15;;;8.15;;
65855;SDS011;52631;42.208;24.656;2023-01-08T04:11:20;15.45;;;8.13;;
65855;SDS011;52631;42.208;24.656;2023-01-08T04:13:46;16.92;;;9.02;;
65855;SDS011;52631;42.208;24.656;2023-01-08T04:16:11;15.85;;;9.18;;
65855;SDS011;52631;42.208;24.656;2023-01-08T04:18:37;17.25;;;8.40;;
65855;SDS011;52631;42.208;24.656;2023-01-08T04:21:02;19.77;;;9.57;;
65855;SDS011;52631;42.208;24.656;2023-01-08T04:23:28;17.67;;;7.63;;
65855;SDS011;52631;42.208;24.656;2023-01-08T04:25:53;17.20;;;8.98;;
65855;SDS011;52631;42.208;24.656;2023-01-08T04:28:19;24.08;;;10.32;;
65855;SDS011;52631;42.208;24.656;2023-01-08T04:30:45;20.25;;;9.77;;
65855;SDS011;52631;42.208;24.656;2023-01-08T04:33:11;20.65;;;9.68;;
65855;SDS011;52631;42.208;24.656;2023-01-08T04:35:36;16.60;;;8.32;;
65855;SDS011;52631;42.208;24.656;2023-01-08T04:38:01;21.23;;;9.63;;
65855;SDS011;52631;42.208;24.656;2023-01-08T04:40:27;20.98;;;9.95;;
65855;SDS011;52631;42.208;24.656;2023-01-08T04:42:52;24.38;;;11.18;;
65855;SDS011;52631;42.208;24.656;2023-01-08T04:45:18;23.10;;;10.60;;
65855;SDS011;52631;42.208;24.656;2023-01-08T04:47:44;27.67;;;11.90;;
65855;SDS011;52631;42.208;24.656;2023-01-08T04:50:09;44.20;;;17.60;;
65855;SDS011;52631;42.208;24.656;2023-01-08T04:52:35;23.88;;;11.18;;
65855;SDS011;52631;42.208;24.656;2023-01-08T04:55:00;18.08;;;9.25;;
65855;SDS011;52631;42.208;24.656;2023-01-08T04:57:26;16.30;;;7.35;;
65855;SDS011;52631;42.208;24.656;2023-01-08T04:59:51;25.92;;;11.45;;
65855;SDS011;52631;42.208;24.656;2023-01-08T05:02:17;15.55;;;7.45;;
65855;SDS011;52631;42.208;24.656;2023-01-08T05:04:43;19.33;;;9.93;;
65855;SDS011;52631;42.208;24.656;2023-01-08T05:07:08;29.67;;;12.95;;
65855;SDS011;52631;42.208;24.656;2023-01-08T05:09:33;28.77;;;12.23;;
65855;SDS011;52631;42.208;24.656;2023-01-08T05:11:59;26.50;;;12.07;;
65855;SDS011;52631;42.208;24.656;2023-01-08T05:14:25;20.95;;;9.73;;
65855;SDS011;52631;42.208;24.656;2023-01-08T05:16:50;21.05;;;9.15;;
65855;SDS011;52631;42.208;24.656;2023-01-08T05:19:16;20.92;;;11.07;;
65855;SDS011;52631;42.208;24.656;2023-01-08T05:21:41;17.55;;;8.50;;
65855;SDS011;52631;42.208;24.656;2023-01-08T05:24:07;14.68;;;7.65;;
65855;SDS011;52631;42.208;24.656;2023-01-08T05:26:33;15.00;;;5.97;;
65855;SDS011;52631;42.208;24.656;2023-01-08T05:28:59;11.00;;;5.20;;
65855;SDS011;52631;42.208;24.656;2023-01-08T05:31:24;9.77;;;5.95;;
65855;SDS011;52631;42.208;24.656;2023-01-08T05:33:50;14.00;;;5.75;;
65855;SDS011;52631;42.208;24.656;2023-01-08T05:36:15;14.63;;;5.57;;
65855;SDS011;52631;42.208;24.656;2023-01-08T05:38:41;15.10;;;6.25;;
65855;SDS011;52631;42.208;24.656;2023-01-08T05:41:07;19.63;;;8.48;;
65855;SDS011;52631;42.208;24.656;2023-01-08T05:43:33;21.58;;;11.55;;
65855;SDS011;52631;42.208;24.656;2023-01-08T05:45:59;29.27;;;14.63;;
65855;SDS011;52631;42.208;24.656;2023-01-08T05:48:25;34.65;;;15.07;;
65855;SDS011;52631;42.208;24.656;2023-01-08T05:50:51;26.95;;;14.30;;
65855;SDS011;52631;42.208;24.656;2023-01-08T05:53:17;30.10;;;14.88;;
65855;SDS011;52631;42.208;24.656;2023-01-08T05:55:42;24.00;;;11.95;;
65855;SDS011;52631;42.208;24.656;2023-01-08T05:58:08;29.20;;;12.57;;
65855;SDS011;52631;42.208;24.656;2023-01-08T06:00:35;27.48;;;12.98;;
65855;SDS011;52631;42.208;24.656;2023-01-08T06:03:00;28.95;;;12.80;;
65855;SDS011;52631;42.208;24.656;2023-01-08T06:05:26;29.77;;;14.68;;
65855;SDS011;52631;42.208;24.656;2023-01-08T06:07:51;25.05;;;12.48;;
65855;SDS011;52631;42.208;24.656;2023-01-08T06:10:17;22.98;;;12.38;;
65855;SDS011;52631;42.208;24.656;2023-01-08T06:12:42;26.05;;;13.88;;
65855;SDS011;52631;42.208;24.656;2023-01-08T06:15:08;27.70;;;13.73;;
65855;SDS011;52631;42.208;24.656;2023-01-08T06:17:34;23.95;;;11.75;;
65855;SDS011;52631;42.208;24.656;2023-01-08T06:20:00;19.90;;;10.05;;
65855;SDS011;52631;42.208;24.656;2023-01-08T06:22:25;15.85;;;7.80;;
65855;SDS011;52631;42.208;24.656;2023-01-08T06:24:51;28.05;;;10.73;;
65855;SDS011;52631;42.208;24.656;2023-01-08T06:27:17;24.15;;;10.80;;
65855;SDS011;52631;42.208;24.656;2023-01-08T06:29:42;20.95;;;9.30;;
65855;SDS011;52631;42.208;24.656;2023-01-08T06:32:08;18.98;;;10.02;;
65855;SDS011;52631;42.208;24.656;2023-01-08T06:34:33;11.07;;;6.28;;
65855;SDS011;52631;42.208;24.656;2023-01-08T06:36:59;13.73;;;8.05;;
65855;SDS011;52631;42.208;24.656;2023-01-08T06:39:24;24.33;;;10.05;;
65855;SDS011;52631;42.208;24.656;2023-01-08T06:41:50;23.63;;;9.77;;
65855;SDS011;52631;42.208;24.656;2023-01-08T06:44:15;17.75;;;7.95;;
65855;SDS011;52631;42.208;24.656;2023-01-08T06:46:41;22.10;;;9.73;;
65855;SDS011;52631;42.208;24.656;2023-01-08T06:49:06;13.13;;;7.10;;
65855;SDS011;52631;42.208;24.656;2023-01-08T06:51:32;16.83;;;6.38;;
65855;SDS011;52631;42.208;24.656;2023-01-08T06:53:58;8.13;;;4.25;;
65855;SDS011;52631;42.208;24.656;2023-01-08T06:56:24;13.85;;;8.07;;
65855;SDS011;52631;42.208;24.656;2023-01-08T06:58:49;19.48;;;8.07;;
65855;SDS011;52631;42.208;24.656;2023-01-08T07:01:15;19.52;;;8.65;;
65855;SDS011;52631;42.208;24.656;2023-01-08T07:03:41;22.45;;;9.32;;
65855;SDS011;52631;42.208;24.656;2023-01-08T07:06:11;20.92;;;9.20;;
65855;SDS011;52631;42.208;24.656;2023-01-08T07:08:41;13.95;;;8.80;;
65855;SDS011;52631;42.208;24.656;2023-01-08T07:11:07;21.92;;;11.18;;
65855;SDS011;52631;42.208;24.656;2023-01-08T07:13:33;15.73;;;8.65;;
65855;SDS011;52631;42.208;24.656;2023-01-08T07:16:03;17.27;;;8.77;;
65855;SDS011;52631;42.208;24.656;2023-01-08T07:18:38;14.20;;;7.03;;
65855;SDS011;52631;42.208;24.656;2023-01-08T07:21:04;11.50;;;6.60;;
65855;SDS011;52631;42.208;24.656;2023-01-08T07:23:30;17.25;;;10.10;;
65855;SDS011;52631;42.208;24.656;2023-01-08T07:26:03;40.95;;;25.73;;
65855;SDS011;52631;42.208;24.656;2023-01-08T07:28:30;69.07;;;40.65;;
65855;SDS011;52631;42.208;24.656;2023-01-08T07:30:56;56.63;;;33.05;;
65855;SDS011;52631;42.208;24.656;2023-01-08T07:33:21;60.88;;;36.05;;
65855;SDS011;52631;42.208;24.656;2023-01-08T07:35:53;55.47;;;32.38;;
65855;SDS011;52631;42.208;24.656;2023-01-08T07:38:19;59.88;;;33.28;;
65855;SDS011;52631;42.208;24.656;2023-01-08T07:40:44;67.25;;;41.22;;
65855;SDS011;52631;42.208;24.656;2023-01-08T07:43:10;58.40;;;32.83;;
65855;SDS011;52631;42.208;24.656;2023-01-08T07:45:39;45.63;;;27.90;;
65855;SDS011;52631;42.208;24.656;2023-01-08T07:48:05;60.03;;;34.60;;
65855;SDS011;52631;42.208;24.656;2023-01-08T07:50:31;33.30;;;18.38;;
65855;SDS011;52631;42.208;24.656;2023-01-08T07:52:57;30.30;;;16.88;;
65855;SDS011;52631;42.208;24.656;2023-01-08T07:55:23;33.78;;;20.10;;
65855;SDS011;52631;42.208;24.656;2023-01-08T07:57:49;32.80;;;21.40;;
65855;SDS011;52631;42.208;24.656;2023-01-08T08:00:14;38.13;;;20.52;;
65855;SDS011;52631;42.208;24.656;2023-01-08T08:02:40;35.63;;;21.50;;
65855;SDS011;52631;42.208;24.656;2023-01-08T08:05:05;29.10;;;18.48;;
65855;SDS011;52631;42.208;24.656;2023-01-08T08:07:31;34.47;;;18.88;;
65855;SDS011;52631;42.208;24.656;2023-01-08T08:09:56;31.45;;;17.83;;
65855;SDS011;52631;42.208;24.656;2023-01-08T08:12:22;34.30;;;20.05;;
65855;SDS011;52631;42.208;24.656;2023-01-08T08:14:48;31.45;;;20.48;;
65855;SDS011;52631;42.208;24.656;2023-01-08T08:17:14;30.73;;;19.15;;
65855;SDS011;52631;42.208;24.656;2023-01-08T08:19:40;33.97;;;19.77;;
65855;SDS011;52631;42.208;24.656;2023-01-08T08:22:08;30.88;;;19.75;;
65855;SDS011;52631;42.208;24.656;2023-01-08T08:24:33;31.80;;;18.80;;
65855;SDS011;52631;42.208;24.656;2023-01-08T08:26:59;41.08;;;20.67;;
65855;SDS011;52631;42.208;24.656;2023-01-08T08:29:24;38.97;;;18.95;;
65855;SDS011;52631;42.208;24.656;2023-01-08T08:31:51;36.20;;;18.73;;
65855;SDS011;52631;42.208;24.656;2023-01-08T08:34:17;105.53;;;46.08;;
65855;SDS011;52631;42.208;24.656;2023-01-08T08:36:44;77.18;;;37.05;;
65855;SDS011;52631;42.208;24.656;2023-01-08T08:39:09;57.65;;;29.42;;
65855;SDS011;52631;42.208;24.656;2023-01-08T08:41:35;40.13;;;20.90;;
65855;SDS011;52631;42.208;24.656;2023-01-08T08:44:02;31.63;;;17.70;;
65855;SDS011;52631;42.208;24.656;2023-01-08T08:46:28;26.40;;;14.90;;
65855;SDS011;52631;42.208;24.656;2023-01-08T08:48:55;30.25;;;15.85;;
65855;SDS011;52631;42.208;24.656;2023-01-08T08:51:21;29.17;;;15.95;;
65855;SDS011;52631;42.208;24.656;2023-01-08T08:53:46;29.45;;;15.30;;
65855;SDS011;52631;42.208;24.656;2023-01-08T08:56:12;27.45;;;15.95;;
65855;SDS011;52631;42.208;24.656;2023-01-08T08:58:38;27.42;;;14.85;;
65855;SDS011;52631;42.208;24.656;2023-01-08T09:01:05;23.35;;;12.75;;
65855;SDS011;52631;42.208;24.656;2023-01-08T09:03:32;16.30;;;8.60;;
65855;SDS011;52631;42.208;24.656;2023-01-08T09:05:58;15.00;;;7.88;;
65855;SDS011;52631;42.208;24.656;2023-01-08T09:08:23;14.75;;;8.25;;
65855;SDS011;52631;42.208;24.656;2023-01-08T09:10:49;20.48;;;8.48;;
65855;SDS011;52631;42.208;24.656;2023-01-08T09:13:14;14.55;;;8.02;;
65855;SDS011;52631;42.208;24.656;2023-01-08T09:15:40;12.38;;;8.30;;
65855;SDS011;52631;42.208;24.656;2023-01-08T09:18:06;14.40;;;7.28;;
65855;SDS011;52631;42.208;24.656;2023-01-08T09:20:31;11.00;;;6.90;;
65855;SDS011;52631;42.208;24.656;2023-01-08T09:22:57;13.98;;;6.60;;
65855;SDS011;52631;42.208;24.656;2023-01-08T09:25:24;11.27;;;5.85;;
65855;SDS011;52631;42.208;24.656;2023-01-08T09:27:57;9.48;;;5.55;;
65855;SDS011;52631;42.208;24.656;2023-01-08T09:30:26;9.40;;;5.78;;
65855;SDS011;52631;42.208;24.656;2023-01-08T09:32:55;12.20;;;5.95;;
65855;SDS011;52631;42.208;24.656;2023-01-08T09:35:21;10.07;;;6.30;;
65855;SDS011;52631;42.208;24.656;2023-01-08T09:37:50;12.75;;;6.30;;
65855;SDS011;52631;42.208;24.656;2023-01-08T09:40:19;14.13;;;5.38;;
65855;SDS011;52631;42.208;24.656;2023-01-08T09:42:48;10.70;;;5.68;;
65855;SDS011;52631;42.208;24.656;2023-01-08T09:48:03;10.95;;;5.63;;
65855;SDS011;52631;42.208;24.656;2023-01-08T09:50:30;10.43;;;5.03;;
65855;SDS011;52631;42.208;24.656;2023-01-08T09:52:57;10.73;;;5.22;;
65855;SDS011;52631;42.208;24.656;2023-01-08T09:55:22;9.70;;;6.07;;
65855;SDS011;52631;42.208;24.656;2023-01-08T09:57:48;12.77;;;5.93;;
65855;SDS011;52631;42.208;24.656;2023-01-08T10:00:19;10.80;;;6.18;;
65855;SDS011;52631;42.208;24.656;2023-01-08T10:02:46;9.23;;;5.70;;
65855;SDS011;52631;42.208;24.656;2023-01-08T10:05:13;9.93;;;6.20;;
65855;SDS011;52631;42.208;24.656;2023-01-08T10:07:40;11.35;;;5.80;;
65855;SDS011;52631;42.208;24.656;2023-01-08T10:10:14;8.50;;;6.03;;
65855;SDS011;52631;42.208;24.656;2023-01-08T10:12:41;10.65;;;5.53;;
65855;SDS011;52631;42.208;24.656;2023-01-08T10:15:10;10.05;;;5.68;;
65855;SDS011;52631;42.208;24.656;2023-01-08T10:17:48;14.25;;;5.35;;
65855;SDS011;52631;42.208;24.656;2023-01-08T10:20:18;9.18;;;5.95;;
65855;SDS011;52631;42.208;24.656;2023-01-08T10:22:48;11.65;;;6.95;;
65855;SDS011;52631;42.208;24.656;2023-01-08T10:25:25;12.02;;;6.72;;
65855;SDS011;52631;42.208;24.656;2023-01-08T10:27:53;9.73;;;5.75;;
65855;SDS011;52631;42.208;24.656;2023-01-08T10:30:33;11.93;;;4.95;;
65855;SDS011;52631;42.208;24.656;2023-01-08T10:33:04;11.82;;;5.72;;
65855;SDS011;52631;42.208;24.656;2023-01-08T10:35:50;11.20;;;6.60;;
65855;SDS011;52631;42.208;24.656;2023-01-08T10:38:28;10.70;;;6.43;;
65855;SDS011;52631;42.208;24.656;2023-01-08T10:40:55;9.65;;;6.05;;
65855;SDS011;52631;42.208;24.656;2023-01-08T10:43:21;9.82;;;5.55;;
65855;SDS011;52631;42.208;24.656;2023-01-08T10:45:54;9.68;;;6.07;;
65855;SDS011;52631;42.208;24.656;2023-01-08T10:48:28;8.63;;;5.88;;
65855;SDS011;52631;42.208;24.656;2023-01-08T10:51:17;15.25;;;6.20;;
65855;SDS011;52631;42.208;24.656;2023-01-08T10:53:44;12.73;;;6.45;;
65855;SDS011;52631;42.208;24.656;2023-01-08T10:56:17;11.27;;;7.00;;
65855;SDS011;52631;42.208;24.656;2023-01-08T10:58:43;9.98;;;5.95;;
65855;SDS011;52631;42.208;24.656;2023-01-08T11:01:09;11.18;;;5.68;;
65855;SDS011;52631;42.208;24.656;2023-01-08T11:03:36;10.68;;;6.50;;
65855;SDS011;52631;42.208;24.656;2023-01-08T11:09:24;10.85;;;6.10;;
65855;SDS011;52631;42.208;24.656;2023-01-08T11:11:52;14.13;;;6.45;;
65855;SDS011;52631;42.208;24.656;2023-01-08T11:14:23;10.93;;;6.32;;
65855;SDS011;52631;42.208;24.656;2023-01-08T11:16:50;13.20;;;7.35;;
65855;SDS011;52631;42.208;24.656;2023-01-08T11:19:18;18.52;;;7.05;;
65855;SDS011;52631;42.208;24.656;2023-01-08T11:24:23;11.40;;;7.03;;
65855;SDS011;52631;42.208;24.656;2023-01-08T11:27:37;13.52;;;7.13;;
65855;SDS011;52631;42.208;24.656;2023-01-08T11:39:52;13.75;;;7.93;;
65855;SDS011;52631;42.208;24.656;2023-01-08T11:53:18;8.50;;;6.22;;
65855;SDS011;52631;42.208;24.656;2023-01-08T11:55:56;12.85;;;7.05;;
65855;SDS011;52631;42.208;24.656;2023-01-08T12:01:21;14.10;;;7.53;;
65855;SDS011;52631;42.208;24.656;2023-01-08T12:07:43;11.43;;;6.25;;
65855;SDS011;52631;42.208;24.656;2023-01-08T12:09:38;12.95;;;7.57;;
65855;SDS011;52631;42.208;24.656;2023-01-08T12:17:48;13.43;;;8.77;;
65855;SDS011;52631;42.208;24.656;2023-01-08T12:26:00;12.10;;;7.28;;
65855;SDS011;52631;42.208;24.656;2023-01-08T12:28:40;11.90;;;6.45;;
65855;SDS011;52631;42.208;24.656;2023-01-08T12:34:22;12.50;;;7.15;;
65855;SDS011;52631;42.208;24.656;2023-01-08T12:37:01;10.13;;;6.47;;
65855;SDS011;52631;42.208;24.656;2023-01-08T12:39:44;13.32;;;6.90;;
65855;SDS011;52631;42.208;24.656;2023-01-08T12:42:15;11.45;;;6.18;;
65855;SDS011;52631;42.208;24.656;2023-01-08T12:44:42;14.18;;;6.45;;
65855;SDS011;52631;42.208;24.656;2023-01-08T12:47:13;13.20;;;7.45;;
65855;SDS011;52631;42.208;24.656;2023-01-08T12:52:27;12.05;;;6.80;;
65855;SDS011;52631;42.208;24.656;2023-01-08T12:57:50;14.18;;;6.60;;
65855;SDS011;52631;42.208;24.656;2023-01-08T13:03:21;32.63;;;10.98;;
65855;SDS011;52631;42.208;24.656;2023-01-08T13:05:49;21.30;;;8.77;;
65855;SDS011;52631;42.208;24.656;2023-01-08T13:10:56;9.90;;;6.13;;
65855;SDS011;52631;42.208;24.656;2023-01-08T13:13:56;10.93;;;6.00;;
65855;SDS011;52631;42.208;24.656;2023-01-08T13:16:20;9.85;;;5.50;;
65855;SDS011;52631;42.208;24.656;2023-01-08T13:21:57;19.13;;;9.18;;
65855;SDS011;52631;42.208;24.656;2023-01-08T13:24:25;9.43;;;5.07;;
65855;SDS011;52631;42.208;24.656;2023-01-08T13:29:48;15.70;;;7.60;;
65855;SDS011;52631;42.208;24.656;2023-01-08T13:32:47;10.48;;;5.65;;
65855;SDS011;52631;42.208;24.656;2023-01-08T13:37:41;9.20;;;5.40;;
65855;SDS011;52631;42.208;24.656;2023-01-08T13:43:17;12.10;;;6.43;;
65855;SDS011;52631;42.208;24.656;2023-01-08T13:45:47;15.88;;;7.53;;
65855;SDS011;52631;42.208;24.656;2023-01-08T13:48:24;12.48;;;6.45;;
65855;SDS011;52631;42.208;24.656;2023-01-08T13:50:51;10.20;;;5.90;;
65855;SDS011;52631;42.208;24.656;2023-01-08T13:53:18;17.05;;;8.05;;
65855;SDS011;52631;42.208;24.656;2023-01-08T13:55:54;10.18;;;6.10;;
65855;SDS011;52631;42.208;24.656;2023-01-08T13:58:34;11.75;;;6.93;;
65855;SDS011;52631;42.208;24.656;2023-01-08T14:01:00;11.43;;;6.57;;
65855;SDS011;52631;42.208;24.656;2023-01-08T14:03:32;29.45;;;11.68;;
65855;SDS011;52631;42.208;24.656;2023-01-08T14:06:04;12.20;;;6.82;;
65855;SDS011;52631;42.208;24.656;2023-01-08T14:08:30;14.73;;;7.13;;
65855;SDS011;52631;42.208;24.656;2023-01-08T14:10:56;15.82;;;7.00;;
65855;SDS011;52631;42.208;24.656;2023-01-08T14:13:24;9.57;;;5.57;;
65855;SDS011;52631;42.208;24.656;2023-01-08T14:15:52;9.10;;;5.47;;
65855;SDS011;52631;42.208;24.656;2023-01-08T14:18:20;10.15;;;5.45;;
65855;SDS011;52631;42.208;24.656;2023-01-08T14:20:47;32.75;;;12.55;;
65855;SDS011;52631;42.208;24.656;2023-01-08T14:23:22;16.05;;;7.20;;
65855;SDS011;52631;42.208;24.656;2023-01-08T14:25:49;27.45;;;10.27;;
65855;SDS011;52631;42.208;24.656;2023-01-08T14:28:16;15.70;;;8.10;;
65855;SDS011;52631;42.208;24.656;2023-01-08T14:30:53;12.32;;;6.35;;
65855;SDS011;52631;42.208;24.656;2023-01-08T14:33:39;22.58;;;8.73;;
65855;SDS011;52631;42.208;24.656;2023-01-08T14:36:06;14.30;;;7.55;;
65855;SDS011;52631;42.208;24.656;2023-01-08T14:38:32;16.52;;;6.70;;
65855;SDS011;52631;42.208;24.656;2023-01-08T14:44:11;14.68;;;7.35;;
65855;SDS011;52631;42.208;24.656;2023-01-08T14:46:37;18.95;;;9.93;;
65855;SDS011;52631;42.208;24.656;2023-01-08T14:49:03;22.83;;;12.27;;
65855;SDS011;52631;42.208;24.656;2023-01-08T14:51:28;25.83;;;14.23;;
65855;SDS011;52631;42.208;24.656;2023-01-08T14:53:57;41.45;;;24.63;;
65855;SDS011;52631;42.208;24.656;2023-01-08T14:56:26;24.20;;;15.60;;
65855;SDS011;52631;42.208;24.656;2023-01-08T14:58:56;27.60;;;13.68;;
65855;SDS011;52631;42.208;24.656;2023-01-08T15:01:26;19.23;;;10.30;;
65855;SDS011;52631;42.208;24.656;2023-01-08T15:04:13;15.93;;;7.97;;
65855;SDS011;52631;42.208;24.656;2023-01-08T15:06:41;20.48;;;8.65;;
65855;SDS011;52631;42.208;24.656;2023-01-08T15:11:52;26.83;;;10.85;;
65855;SDS011;52631;42.208;24.656;2023-01-08T15:14:23;21.58;;;10.15;;
65855;SDS011;52631;42.208;24.656;2023-01-08T15:16:52;21.13;;;10.18;;
65855;SDS011;52631;42.208;24.656;2023-01-08T15:19:23;24.08;;;10.65;;
65855;SDS011;52631;42.208;24.656;2023-01-08T15:21:53;22.30;;;11.32;;
65855;SDS011;52631;42.208;24.656;2023-01-08T15:26:55;20.38;;;10.90;;
65855;SDS011;52631;42.208;24.656;2023-01-08T15:29:24;22.10;;;10.88;;
65855;SDS011;52631;42.208;24.656;2023-01-08T15:31:57;20.73;;;10.55;;
65855;SDS011;52631;42.208;24.656;2023-01-08T15:34:43;20.50;;;9.98;;
65855;SDS011;52631;42.208;24.656;2023-01-08T15:37:10;22.50;;;11.63;;
65855;SDS011;52631;42.208;24.656;2023-01-08T15:39:37;22.60;;;11.50;;
65855;SDS011;52631;42.208;24.656;2023-01-08T15:45:02;23.25;;;12.18;;
65855;SDS011;52631;42.208;24.656;2023-01-08T15:47:29;20.20;;;11.63;;
65855;SDS011;52631;42.208;24.656;2023-01-08T15:49:56;21.73;;;10.55;;
65855;SDS011;52631;42.208;24.656;2023-01-08T15:52:22;26.75;;;12.50;;
65855;SDS011;52631;42.208;24.656;2023-01-08T15:54:49;25.98;;;12.02;;
65855;SDS011;52631;42.208;24.656;2023-01-08T15:57:16;18.77;;;10.52;;
65855;SDS011;52631;42.208;24.656;2023-01-08T15:59:45;20.75;;;11.23;;
65855;SDS011;52631;42.208;24.656;2023-01-08T16:02:11;26.48;;;11.18;;
65855;SDS011;52631;42.208;24.656;2023-01-08T16:04:37;19.83;;;9.65;;
65855;SDS011;52631;42.208;24.656;2023-01-08T16:07:03;19.05;;;9.55;;
65855;SDS011;52631;42.208;24.656;2023-01-08T16:09:28;19.80;;;9.95;;
65855;SDS011;52631;42.208;24.656;2023-01-08T16:11:54;22.77;;;11.13;;